sensor_id;sensor_type;location;lat;lon;timestamp;temperature;humidity
12060;DHT22;6091;51.432;6.880;2024-02-28T00:00:31;21.40;37.50
12060;DHT22;6091;51.432;6.880;2024-02-28T00:02:59;21.50;37.60
12060;DHT22;6091;51.432;6.880;2024-02-28T00:05:29;21.40;37.60
12060;DHT22;6091;51.432;6.880;2024-02-28T00:07:56;21.40;37.60
12060;DHT22;6091;51.432;6.880;2024-02-28T00:10:23;21.40;37.60
12060;DHT22;6091;51.432;6.880;2024-02-28T00:12:50;21.40;37.60
12060;DHT22;6091;51.432;6.880;2024-02-28T00:15:17;21.40;37.60
12060;DHT22;6091;51.432;6.880;2024-02-28T00:17:45;21.40;37.60
12060;DHT22;6091;51.432;6.880;2024-02-28T00:20:12;21.40;37.60
12060;DHT22;6091;51.432;6.880;2024-02-28T00:22:40;21.40;37.70
12060;DHT22;6091;51.432;6.880;2024-02-28T00:25:09;21.40;37.60
12060;DHT22;6091;51.432;6.880;2024-02-28T00:27:38;21.40;37.70
12060;DHT22;6091;51.432;6.880;2024-02-28T00:30:06;21.40;37.70
12060;DHT22;6091;51.432;6.880;2024-02-28T00:32:33;21.40;37.70
12060;DHT22;6091;51.432;6.880;2024-02-28T00:35:01;21.30;37.70
12060;DHT22;6091;51.432;6.880;2024-02-28T00:37:30;21.30;37.70
12060;DHT22;6091;51.432;6.880;2024-02-28T00:39:57;21.30;37.70
12060;DHT22;6091;51.432;6.880;2024-02-28T00:42:24;21.30;37.70
12060;DHT22;6091;51.432;6.880;2024-02-28T00:44:51;21.30;37.70
12060;DHT22;6091;51.432;6.880;2024-02-28T00:47:18;21.30;37.70
12060;DHT22;6091;51.432;6.880;2024-02-28T00:49:45;21.30;37.80
12060;DHT22;6091;51.432;6.880;2024-02-28T00:52:12;21.30;37.80
12060;DHT22;6091;51.432;6.880;2024-02-28T00:54:39;21.20;37.70
12060;DHT22;6091;51.432;6.880;2024-02-28T00:57:06;21.20;37.70
12060;DHT22;6091;51.432;6.880;2024-02-28T00:59:33;21.30;37.80
12060;DHT22;6091;51.432;6.880;2024-02-28T01:02:01;21.20;37.70
12060;DHT22;6091;51.432;6.880;2024-02-28T01:04:29;21.20;37.80
12060;DHT22;6091;51.432;6.880;2024-02-28T01:06:57;21.20;37.70
12060;DHT22;6091;51.432;6.880;2024-02-28T01:09:24;21.20;37.80
12060;DHT22;6091;51.432;6.880;2024-02-28T01:11:52;21.20;37.70
12060;DHT22;6091;51.432;6.880;2024-02-28T01:14:19;21.20;37.80
12060;DHT22;6091;51.432;6.880;2024-02-28T01:16:46;21.20;37.80
12060;DHT22;6091;51.432;6.880;2024-02-28T01:19:15;21.20;37.80
12060;DHT22;6091;51.432;6.880;2024-02-28T01:21:42;21.20;37.80
12060;DHT22;6091;51.432;6.880;2024-02-28T01:24:10;21.20;37.80
12060;DHT22;6091;51.432;6.880;2024-02-28T01:26:37;21.20;37.80
12060;DHT22;6091;51.432;6.880;2024-02-28T01:29:04;21.20;37.90
12060;DHT22;6091;51.432;6.880;2024-02-28T01:31:32;21.10;37.80
12060;DHT22;6091;51.432;6.880;2024-02-28T01:33:59;21.20;37.90
12060;DHT22;6091;51.432;6.880;2024-02-28T01:36:26;21.10;37.80
12060;DHT22;6091;51.432;6.880;2024-02-28T01:38:53;21.10;37.80
12060;DHT22;6091;51.432;6.880;2024-02-28T01:41:21;21.10;37.80
12060;DHT22;6091;51.432;6.880;2024-02-28T01:43:48;21.10;37.80
12060;DHT22;6091;51.432;6.880;2024-02-28T01:46:25;21.10;37.90
12060;DHT22;6091;51.432;6.880;2024-02-28T01:48:54;21.10;38.10
12060;DHT22;6091;51.432;6.880;2024-02-28T01:51:24;21.10;37.90
12060;DHT22;6091;51.432;6.880;2024-02-28T01:53:54;21.10;37.90
12060;DHT22;6091;51.432;6.880;2024-02-28T01:56:23;21.10;37.90
12060;DHT22;6091;51.432;6.880;2024-02-28T01:58:52;21.10;38.00
12060;DHT22;6091;51.432;6.880;2024-02-28T02:01:21;21.10;38.00
12060;DHT22;6091;51.432;6.880;2024-02-28T02:03:49;21.00;37.90
12060;DHT22;6091;51.432;6.880;2024-02-28T02:06:16;21.10;38.00
12060;DHT22;6091;51.432;6.880;2024-02-28T02:08:44;21.10;38.00
12060;DHT22;6091;51.432;6.880;2024-02-28T02:11:17;21.10;38.00
12060;DHT22;6091;51.432;6.880;2024-02-28T02:13:51;21.10;38.00
12060;DHT22;6091;51.432;6.880;2024-02-28T02:16:20;21.10;38.10
12060;DHT22;6091;51.432;6.880;2024-02-28T02:18:53;21.00;37.90
12060;DHT22;6091;51.432;6.880;2024-02-28T02:21:23;21.00;38.00
12060;DHT22;6091;51.432;6.880;2024-02-28T02:23:53;21.00;38.00
12060;DHT22;6091;51.432;6.880;2024-02-28T02:26:22;21.00;38.00
12060;DHT22;6091;51.432;6.880;2024-02-28T02:28:49;21.00;38.00
12060;DHT22;6091;51.432;6.880;2024-02-28T02:31:16;21.00;38.00
12060;DHT22;6091;51.432;6.880;2024-02-28T02:33:44;21.00;38.00
12060;DHT22;6091;51.432;6.880;2024-02-28T02:36:12;21.00;38.00
12060;DHT22;6091;51.432;6.880;2024-02-28T02:38:39;21.00;38.00
12060;DHT22;6091;51.432;6.880;2024-02-28T02:41:06;20.90;38.00
12060;DHT22;6091;51.432;6.880;2024-02-28T02:43:36;20.90;38.00
12060;DHT22;6091;51.432;6.880;2024-02-28T02:46:03;20.90;38.00
12060;DHT22;6091;51.432;6.880;2024-02-28T02:48:30;20.90;38.00
12060;DHT22;6091;51.432;6.880;2024-02-28T02:50:58;21.00;38.10
12060;DHT22;6091;51.432;6.880;2024-02-28T02:53:25;20.90;38.00
12060;DHT22;6091;51.432;6.880;2024-02-28T02:55:52;20.90;38.00
12060;DHT22;6091;51.432;6.880;2024-02-28T02:58:20;20.90;38.10
12060;DHT22;6091;51.432;6.880;2024-02-28T03:00:48;20.90;38.00
12060;DHT22;6091;51.432;6.880;2024-02-28T03:03:16;20.90;38.10
12060;DHT22;6091;51.432;6.880;2024-02-28T03:05:43;20.90;38.00
12060;DHT22;6091;51.432;6.880;2024-02-28T03:08:11;20.90;38.10
12060;DHT22;6091;51.432;6.880;2024-02-28T03:10:39;20.90;38.10
12060;DHT22;6091;51.432;6.880;2024-02-28T03:13:06;20.90;38.10
12060;DHT22;6091;51.432;6.880;2024-02-28T03:15:34;20.90;38.10
12060;DHT22;6091;51.432;6.880;2024-02-28T03:18:01;20.90;38.10
12060;DHT22;6091;51.432;6.880;2024-02-28T03:20:28;20.90;38.10
12060;DHT22;6091;51.432;6.880;2024-02-28T03:22:56;20.90;38.10
12060;DHT22;6091;51.432;6.880;2024-02-28T03:25:23;20.90;38.20
12060;DHT22;6091;51.432;6.880;2024-02-28T03:27:50;20.90;38.20
12060;DHT22;6091;51.432;6.880;2024-02-28T03:30:17;20.90;38.20
12060;DHT22;6091;51.432;6.880;2024-02-28T03:32:44;20.90;38.20
12060;DHT22;6091;51.432;6.880;2024-02-28T03:35:11;20.80;38.10
12060;DHT22;6091;51.432;6.880;2024-02-28T03:37:38;20.80;38.10
12060;DHT22;6091;51.432;6.880;2024-02-28T03:40:06;20.80;38.10
12060;DHT22;6091;51.432;6.880;2024-02-28T03:42:34;20.80;38.10
12060;DHT22;6091;51.432;6.880;2024-02-28T03:45:01;20.80;38.10
12060;DHT22;6091;51.432;6.880;2024-02-28T03:47:28;20.80;38.10
12060;DHT22;6091;51.432;6.880;2024-02-28T03:49:55;20.80;38.10
12060;DHT22;6091;51.432;6.880;2024-02-28T03:52:24;20.80;38.10
12060;DHT22;6091;51.432;6.880;2024-02-28T03:54:52;20.80;38.10
12060;DHT22;6091;51.432;6.880;2024-02-28T03:57:19;20.80;38.20
12060;DHT22;6091;51.432;6.880;2024-02-28T03:59:46;20.80;38.20
12060;DHT22;6091;51.432;6.880;2024-02-28T04:02:14;20.80;38.20
12060;DHT22;6091;51.432;6.880;2024-02-28T04:04:42;20.80;38.20
12060;DHT22;6091;51.432;6.880;2024-02-28T04:07:09;20.80;38.20
12060;DHT22;6091;51.432;6.880;2024-02-28T04:09:37;20.80;38.20
12060;DHT22;6091;51.432;6.880;2024-02-28T04:12:06;20.80;38.20
12060;DHT22;6091;51.432;6.880;2024-02-28T04:14:33;20.80;38.20
12060;DHT22;6091;51.432;6.880;2024-02-28T04:17:00;20.80;38.20
12060;DHT22;6091;51.432;6.880;2024-02-28T04:19:33;20.80;38.20
12060;DHT22;6091;51.432;6.880;2024-02-28T04:22:04;20.80;38.30
12060;DHT22;6091;51.432;6.880;2024-02-28T04:24:31;20.80;38.20
12060;DHT22;6091;51.432;6.880;2024-02-28T04:26:59;20.70;38.10
12060;DHT22;6091;51.432;6.880;2024-02-28T04:29:27;20.80;38.20
12060;DHT22;6091;51.432;6.880;2024-02-28T04:31:54;20.70;38.20
12060;DHT22;6091;51.432;6.880;2024-02-28T04:34:21;20.80;38.20
12060;DHT22;6091;51.432;6.880;2024-02-28T04:36:48;20.70;38.10
12060;DHT22;6091;51.432;6.880;2024-02-28T04:39:15;20.70;38.10
12060;DHT22;6091;51.432;6.880;2024-02-28T04:41:42;20.80;38.20
12060;DHT22;6091;51.432;6.880;2024-02-28T04:44:10;20.80;38.20
12060;DHT22;6091;51.432;6.880;2024-02-28T04:46:37;20.80;38.30
12060;DHT22;6091;51.432;6.880;2024-02-28T04:49:04;20.70;38.20
12060;DHT22;6091;51.432;6.880;2024-02-28T04:51:31;20.80;38.20
12060;DHT22;6091;51.432;6.880;2024-02-28T04:53:59;20.70;38.20
12060;DHT22;6091;51.432;6.880;2024-02-28T04:56:27;20.80;38.20
12060;DHT22;6091;51.432;6.880;2024-02-28T04:58:54;20.70;38.10
12060;DHT22;6091;51.432;6.880;2024-02-28T05:01:21;20.70;38.20
12060;DHT22;6091;51.432;6.880;2024-02-28T05:03:49;20.70;38.20
12060;DHT22;6091;51.432;6.880;2024-02-28T05:06:16;20.70;38.20
12060;DHT22;6091;51.432;6.880;2024-02-28T05:08:43;20.70;38.20
12060;DHT22;6091;51.432;6.880;2024-02-28T05:11:11;20.70;38.20
12060;DHT22;6091;51.432;6.880;2024-02-28T05:13:38;20.70;38.20
12060;DHT22;6091;51.432;6.880;2024-02-28T05:16:12;20.70;38.20
12060;DHT22;6091;51.432;6.880;2024-02-28T05:18:40;20.70;38.30
12060;DHT22;6091;51.432;6.880;2024-02-28T05:21:07;20.70;38.20
12060;DHT22;6091;51.432;6.880;2024-02-28T05:23:34;20.70;38.20
12060;DHT22;6091;51.432;6.880;2024-02-28T05:26:02;20.70;38.20
12060;DHT22;6091;51.432;6.880;2024-02-28T05:28:34;20.70;38.20
12060;DHT22;6091;51.432;6.880;2024-02-28T05:31:25;20.70;38.20
12060;DHT22;6091;51.432;6.880;2024-02-28T05:33:57;20.70;38.30
12060;DHT22;6091;51.432;6.880;2024-02-28T05:36:29;20.70;38.20
12060;DHT22;6091;51.432;6.880;2024-02-28T05:38:59;20.70;38.30
12060;DHT22;6091;51.432;6.880;2024-02-28T05:41:28;20.70;38.30
12060;DHT22;6091;51.432;6.880;2024-02-28T05:43:55;20.70;38.30
12060;DHT22;6091;51.432;6.880;2024-02-28T05:46:22;20.60;38.20
12060;DHT22;6091;51.432;6.880;2024-02-28T05:48:50;20.70;38.30
12060;DHT22;6091;51.432;6.880;2024-02-28T05:51:17;20.70;38.30
12060;DHT22;6091;51.432;6.880;2024-02-28T05:53:46;20.70;38.30
12060;DHT22;6091;51.432;6.880;2024-02-28T05:56:13;20.70;38.30
12060;DHT22;6091;51.432;6.880;2024-02-28T05:58:42;20.60;38.30
12060;DHT22;6091;51.432;6.880;2024-02-28T06:01:11;20.70;38.30
12060;DHT22;6091;51.432;6.880;2024-02-28T06:03:38;20.70;38.30
12060;DHT22;6091;51.432;6.880;2024-02-28T06:06:06;20.70;38.30
12060;DHT22;6091;51.432;6.880;2024-02-28T06:08:34;20.60;38.40
12060;DHT22;6091;51.432;6.880;2024-02-28T06:11:04;20.70;38.70
12060;DHT22;6091;51.432;6.880;2024-02-28T06:13:32;20.70;39.10
12060;DHT22;6091;51.432;6.880;2024-02-28T06:15:59;20.80;39.60
12060;DHT22;6091;51.432;6.880;2024-02-28T06:18:27;20.90;39.90
12060;DHT22;6091;51.432;6.880;2024-02-28T06:20:55;21.10;40.20
12060;DHT22;6091;51.432;6.880;2024-02-28T06:23:23;21.40;40.30
12060;DHT22;6091;51.432;6.880;2024-02-28T06:25:56;21.60;40.20
12060;DHT22;6091;51.432;6.880;2024-02-28T06:28:25;21.90;40.10
12060;DHT22;6091;51.432;6.880;2024-02-28T06:30:53;22.20;39.80
12060;DHT22;6091;51.432;6.880;2024-02-28T06:33:20;22.40;39.60
12060;DHT22;6091;51.432;6.880;2024-02-28T06:35:47;22.70;39.50
12060;DHT22;6091;51.432;6.880;2024-02-28T06:38:15;22.90;39.30
12060;DHT22;6091;51.432;6.880;2024-02-28T06:40:42;23.20;39.20
12060;DHT22;6091;51.432;6.880;2024-02-28T06:43:09;23.30;38.90
12060;DHT22;6091;51.432;6.880;2024-02-28T06:45:36;23.60;38.80
12060;DHT22;6091;51.432;6.880;2024-02-28T06:48:06;23.80;38.60
12060;DHT22;6091;51.432;6.880;2024-02-28T06:50:34;23.90;38.40
12060;DHT22;6091;51.432;6.880;2024-02-28T06:53:01;24.10;38.30
12060;DHT22;6091;51.432;6.880;2024-02-28T06:55:29;24.20;38.10
12060;DHT22;6091;51.432;6.880;2024-02-28T06:57:56;24.40;38.00
12060;DHT22;6091;51.432;6.880;2024-02-28T07:00:23;24.50;37.80
12060;DHT22;6091;51.432;6.880;2024-02-28T07:02:51;24.60;37.80
12060;DHT22;6091;51.432;6.880;2024-02-28T07:05:19;24.70;37.60
12060;DHT22;6091;51.432;6.880;2024-02-28T07:07:47;24.80;37.50
12060;DHT22;6091;51.432;6.880;2024-02-28T07:10:14;24.90;37.40
12060;DHT22;6091;51.432;6.880;2024-02-28T07:12:41;25.00;37.30
12060;DHT22;6091;51.432;6.880;2024-02-28T07:15:08;25.10;37.30
12060;DHT22;6091;51.432;6.880;2024-02-28T07:17:37;25.10;37.20
12060;DHT22;6091;51.432;6.880;2024-02-28T07:20:05;25.20;37.10
12060;DHT22;6091;51.432;6.880;2024-02-28T07:22:33;25.30;37.00
12060;DHT22;6091;51.432;6.880;2024-02-28T07:25:00;25.40;37.00
12060;DHT22;6091;51.432;6.880;2024-02-28T07:27:28;25.40;36.90
12060;DHT22;6091;51.432;6.880;2024-02-28T07:29:55;25.50;36.80
12060;DHT22;6091;51.432;6.880;2024-02-28T07:32:22;25.60;36.80
12060;DHT22;6091;51.432;6.880;2024-02-28T07:34:50;25.60;36.60
12060;DHT22;6091;51.432;6.880;2024-02-28T07:37:17;25.60;36.60
12060;DHT22;6091;51.432;6.880;2024-02-28T07:39:44;25.70;36.60
12060;DHT22;6091;51.432;6.880;2024-02-28T07:42:13;25.70;36.50
12060;DHT22;6091;51.432;6.880;2024-02-28T07:44:40;25.80;36.40
12060;DHT22;6091;51.432;6.880;2024-02-28T07:47:08;25.80;36.40
12060;DHT22;6091;51.432;6.880;2024-02-28T07:49:35;25.80;36.30
12060;DHT22;6091;51.432;6.880;2024-02-28T07:52:02;25.90;36.30
12060;DHT22;6091;51.432;6.880;2024-02-28T07:54:30;25.90;36.20
12060;DHT22;6091;51.432;6.880;2024-02-28T07:56:57;25.90;36.10
12060;DHT22;6091;51.432;6.880;2024-02-28T07:59:24;25.90;36.00
12060;DHT22;6091;51.432;6.880;2024-02-28T08:01:51;25.90;36.00
12060;DHT22;6091;51.432;6.880;2024-02-28T08:04:19;25.90;36.00
12060;DHT22;6091;51.432;6.880;2024-02-28T08:06:46;25.90;35.90
12060;DHT22;6091;51.432;6.880;2024-02-28T08:09:13;26.00;36.00
12060;DHT22;6091;51.432;6.880;2024-02-28T08:11:42;26.00;36.00
12060;DHT22;6091;51.432;6.880;2024-02-28T08:14:09;26.00;36.00
12060;DHT22;6091;51.432;6.880;2024-02-28T08:16:37;26.00;35.90
12060;DHT22;6091;51.432;6.880;2024-02-28T08:19:04;26.00;35.90
12060;DHT22;6091;51.432;6.880;2024-02-28T08:21:31;26.00;35.90
12060;DHT22;6091;51.432;6.880;2024-02-28T08:23:58;26.00;35.90
12060;DHT22;6091;51.432;6.880;2024-02-28T08:26:26;26.00;35.90
12060;DHT22;6091;51.432;6.880;2024-02-28T08:28:53;25.90;35.80
12060;DHT22;6091;51.432;6.880;2024-02-28T08:31:21;26.00;35.90
12060;DHT22;6091;51.432;6.880;2024-02-28T08:33:48;26.00;35.80
12060;DHT22;6091;51.432;6.880;2024-02-28T08:36:15;26.00;35.90
12060;DHT22;6091;51.432;6.880;2024-02-28T08:38:43;26.00;35.90
12060;DHT22;6091;51.432;6.880;2024-02-28T08:41:10;26.00;35.90
12060;DHT22;6091;51.432;6.880;2024-02-28T08:43:39;26.00;35.90
12060;DHT22;6091;51.432;6.880;2024-02-28T08:46:07;25.90;35.80
12060;DHT22;6091;51.432;6.880;2024-02-28T08:48:34;25.90;36.40
12060;DHT22;6091;51.432;6.880;2024-02-28T08:51:04;26.00;35.90
12060;DHT22;6091;51.432;6.880;2024-02-28T08:53:31;25.90;35.90
12060;DHT22;6091;51.432;6.880;2024-02-28T08:55:58;26.00;35.90
12060;DHT22;6091;51.432;6.880;2024-02-28T08:58:27;25.90;35.80
12060;DHT22;6091;51.432;6.880;2024-02-28T09:00:54;26.00;35.90
12060;DHT22;6091;51.432;6.880;2024-02-28T09:03:22;26.00;35.90
12060;DHT22;6091;51.432;6.880;2024-02-28T09:05:49;26.00;35.90
12060;DHT22;6091;51.432;6.880;2024-02-28T09:08:16;26.00;36.00
12060;DHT22;6091;51.432;6.880;2024-02-28T09:10:44;25.90;35.90
12060;DHT22;6091;51.432;6.880;2024-02-28T09:13:12;26.00;36.00
12060;DHT22;6091;51.432;6.880;2024-02-28T09:15:40;26.00;36.00
12060;DHT22;6091;51.432;6.880;2024-02-28T09:18:07;26.00;35.90
12060;DHT22;6091;51.432;6.880;2024-02-28T09:20:36;25.90;35.80
12060;DHT22;6091;51.432;6.880;2024-02-28T09:23:03;25.90;35.90
12060;DHT22;6091;51.432;6.880;2024-02-28T09:25:30;25.90;35.90
12060;DHT22;6091;51.432;6.880;2024-02-28T09:27:59;25.90;35.80
12060;DHT22;6091;51.432;6.880;2024-02-28T09:30:27;26.00;35.80
12060;DHT22;6091;51.432;6.880;2024-02-28T09:33:08;26.00;35.80
12060;DHT22;6091;51.432;6.880;2024-02-28T09:35:36;26.00;35.80
12060;DHT22;6091;51.432;6.880;2024-02-28T09:38:03;26.00;35.70
12060;DHT22;6091;51.432;6.880;2024-02-28T09:40:31;25.90;35.70
12060;DHT22;6091;51.432;6.880;2024-02-28T09:43:01;26.00;35.80
12060;DHT22;6091;51.432;6.880;2024-02-28T09:45:31;26.00;35.00
12060;DHT22;6091;51.432;6.880;2024-02-28T09:48:00;25.90;35.10
12060;DHT22;6091;51.432;6.880;2024-02-28T09:50:28;25.90;35.10
12060;DHT22;6091;51.432;6.880;2024-02-28T09:52:58;25.90;35.30
12060;DHT22;6091;51.432;6.880;2024-02-28T09:55:36;25.80;35.30
12060;DHT22;6091;51.432;6.880;2024-02-28T09:58:04;25.90;35.40
12060;DHT22;6091;51.432;6.880;2024-02-28T10:00:33;25.90;35.50
12060;DHT22;6091;51.432;6.880;2024-02-28T10:03:04;25.80;35.40
12060;DHT22;6091;51.432;6.880;2024-02-28T10:05:33;25.90;35.60
12060;DHT22;6091;51.432;6.880;2024-02-28T10:08:02;25.90;35.60
12060;DHT22;6091;51.432;6.880;2024-02-28T10:10:29;25.90;35.70
12060;DHT22;6091;51.432;6.880;2024-02-28T10:12:57;25.90;35.80
12060;DHT22;6091;51.432;6.880;2024-02-28T10:15:28;25.90;35.70
12060;DHT22;6091;51.432;6.880;2024-02-28T10:17:57;26.00;35.70
12060;DHT22;6091;51.432;6.880;2024-02-28T10:20:24;26.00;35.60
12060;DHT22;6091;51.432;6.880;2024-02-28T10:22:52;26.10;35.70
12060;DHT22;6091;51.432;6.880;2024-02-28T10:25:20;26.10;35.70
12060;DHT22;6091;51.432;6.880;2024-02-28T10:27:48;26.10;35.70
12060;DHT22;6091;51.432;6.880;2024-02-28T10:30:15;26.20;35.70
12060;DHT22;6091;51.432;6.880;2024-02-28T10:32:51;26.20;35.60
12060;DHT22;6091;51.432;6.880;2024-02-28T10:35:19;26.20;35.40
12060;DHT22;6091;51.432;6.880;2024-02-28T10:37:47;26.20;35.40
12060;DHT22;6091;51.432;6.880;2024-02-28T10:40:17;26.20;35.40
12060;DHT22;6091;51.432;6.880;2024-02-28T10:42:49;26.30;35.40
12060;DHT22;6091;51.432;6.880;2024-02-28T10:45:18;26.30;35.30
12060;DHT22;6091;51.432;6.880;2024-02-28T10:48:06;26.30;35.30
12060;DHT22;6091;51.432;6.880;2024-02-28T10:50:35;26.30;35.30
12060;DHT22;6091;51.432;6.880;2024-02-28T10:53:04;26.30;35.20
12060;DHT22;6091;51.432;6.880;2024-02-28T10:55:38;26.30;35.20
12060;DHT22;6091;51.432;6.880;2024-02-28T10:58:09;26.30;35.20
12060;DHT22;6091;51.432;6.880;2024-02-28T11:00:39;26.20;35.10
12060;DHT22;6091;51.432;6.880;2024-02-28T11:03:15;25.20;34.40
12060;DHT22;6091;51.432;6.880;2024-02-28T11:05:44;26.60;35.30
12060;DHT22;6091;51.432;6.880;2024-02-28T11:08:26;26.20;35.10
12060;DHT22;6091;51.432;6.880;2024-02-28T11:10:59;26.20;34.90
12060;DHT22;6091;51.432;6.880;2024-02-28T11:13:30;26.20;35.00
12060;DHT22;6091;51.432;6.880;2024-02-28T11:16:08;26.10;35.00
12060;DHT22;6091;51.432;6.880;2024-02-28T11:18:47;26.10;35.00
12060;DHT22;6091;51.432;6.880;2024-02-28T11:21:17;26.10;35.00
12060;DHT22;6091;51.432;6.880;2024-02-28T11:23:47;26.10;34.90
12060;DHT22;6091;51.432;6.880;2024-02-28T11:26:15;26.20;34.90
12060;DHT22;6091;51.432;6.880;2024-02-28T11:28:43;26.30;35.00
12060;DHT22;6091;51.432;6.880;2024-02-28T11:31:11;26.30;35.00
12060;DHT22;6091;51.432;6.880;2024-02-28T11:33:38;26.30;35.00
12060;DHT22;6091;51.432;6.880;2024-02-28T11:36:06;26.40;35.10
12060;DHT22;6091;51.432;6.880;2024-02-28T11:38:35;26.50;35.10
12060;DHT22;6091;51.432;6.880;2024-02-28T11:41:05;26.60;35.20
12060;DHT22;6091;51.432;6.880;2024-02-28T11:43:34;26.60;35.10
12060;DHT22;6091;51.432;6.880;2024-02-28T11:46:17;26.70;35.00
12060;DHT22;6091;51.432;6.880;2024-02-28T11:48:46;26.80;35.00
12060;DHT22;6091;51.432;6.880;2024-02-28T11:51:14;26.80;34.90
12060;DHT22;6091;51.432;6.880;2024-02-28T11:53:42;26.90;34.90
12060;DHT22;6091;51.432;6.880;2024-02-28T11:56:10;26.90;34.90
12060;DHT22;6091;51.432;6.880;2024-02-28T11:58:37;26.90;34.90
12060;DHT22;6091;51.432;6.880;2024-02-28T12:01:05;27.00;34.80
12060;DHT22;6091;51.432;6.880;2024-02-28T12:03:35;27.10;34.90
12060;DHT22;6091;51.432;6.880;2024-02-28T12:06:02;27.10;34.80
12060;DHT22;6091;51.432;6.880;2024-02-28T12:08:30;27.20;34.80
12060;DHT22;6091;51.432;6.880;2024-02-28T12:11:06;27.30;34.80
12060;DHT22;6091;51.432;6.880;2024-02-28T12:13:35;27.40;34.40
12060;DHT22;6091;51.432;6.880;2024-02-28T12:16:04;27.50;34.80
12060;DHT22;6091;51.432;6.880;2024-02-28T12:18:32;27.60;34.80
12060;DHT22;6091;51.432;6.880;2024-02-28T12:20:59;27.80;34.80
12060;DHT22;6091;51.432;6.880;2024-02-28T12:23:27;27.80;34.70
12060;DHT22;6091;51.432;6.880;2024-02-28T12:25:55;27.90;34.60
12060;DHT22;6091;51.432;6.880;2024-02-28T12:28:22;28.00;34.60
12060;DHT22;6091;51.432;6.880;2024-02-28T12:30:50;28.10;34.60
12060;DHT22;6091;51.432;6.880;2024-02-28T12:33:20;28.20;34.50
12060;DHT22;6091;51.432;6.880;2024-02-28T12:35:49;28.30;34.40
12060;DHT22;6091;51.432;6.880;2024-02-28T12:38:17;28.30;34.30
12060;DHT22;6091;51.432;6.880;2024-02-28T12:40:44;28.40;34.30
12060;DHT22;6091;51.432;6.880;2024-02-28T12:43:11;28.40;34.20
12060;DHT22;6091;51.432;6.880;2024-02-28T12:45:39;28.40;34.10
12060;DHT22;6091;51.432;6.880;2024-02-28T12:48:06;28.50;34.10
12060;DHT22;6091;51.432;6.880;2024-02-28T12:50:33;28.50;34.10
12060;DHT22;6091;51.432;6.880;2024-02-28T12:53:04;28.50;34.00
12060;DHT22;6091;51.432;6.880;2024-02-28T12:55:32;28.50;33.90
12060;DHT22;6091;51.432;6.880;2024-02-28T12:58:00;28.60;33.90
12060;DHT22;6091;51.432;6.880;2024-02-28T13:00:31;28.60;34.50
12060;DHT22;6091;51.432;6.880;2024-02-28T13:02:59;28.60;33.80
12060;DHT22;6091;51.432;6.880;2024-02-28T13:05:26;28.60;33.80
12060;DHT22;6091;51.432;6.880;2024-02-28T13:07:57;28.70;33.80
12060;DHT22;6091;51.432;6.880;2024-02-28T13:10:26;28.70;33.70
12060;DHT22;6091;51.432;6.880;2024-02-28T13:12:54;28.70;33.60
12060;DHT22;6091;51.432;6.880;2024-02-28T13:15:22;28.70;33.50
12060;DHT22;6091;51.432;6.880;2024-02-28T13:17:50;28.60;33.50
12060;DHT22;6091;51.432;6.880;2024-02-28T13:20:19;28.60;33.50
12060;DHT22;6091;51.432;6.880;2024-02-28T13:22:47;28.60;33.50
12060;DHT22;6091;51.432;6.880;2024-02-28T13:25:14;28.50;33.40
12060;DHT22;6091;51.432;6.880;2024-02-28T13:27:42;28.50;33.40
12060;DHT22;6091;51.432;6.880;2024-02-28T13:30:10;28.30;33.20
12060;DHT22;6091;51.432;6.880;2024-02-28T13:32:37;28.30;33.60
12060;DHT22;6091;51.432;6.880;2024-02-28T13:35:05;28.30;33.60
12060;DHT22;6091;51.432;6.880;2024-02-28T13:37:34;28.30;33.60
12060;DHT22;6091;51.432;6.880;2024-02-28T13:40:01;28.30;33.60
12060;DHT22;6091;51.432;6.880;2024-02-28T13:42:36;28.20;33.50
12060;DHT22;6091;51.432;6.880;2024-02-28T13:45:05;28.20;33.60
12060;DHT22;6091;51.432;6.880;2024-02-28T13:47:38;28.20;33.60
12060;DHT22;6091;51.432;6.880;2024-02-28T13:50:07;28.10;33.60
12060;DHT22;6091;51.432;6.880;2024-02-28T13:52:36;28.20;33.70
12060;DHT22;6091;51.432;6.880;2024-02-28T13:55:04;28.10;33.70
12060;DHT22;6091;51.432;6.880;2024-02-28T13:57:32;28.10;33.70
12060;DHT22;6091;51.432;6.880;2024-02-28T14:00:00;28.10;32.60
12060;DHT22;6091;51.432;6.880;2024-02-28T14:02:27;28.00;31.90
12060;DHT22;6091;51.432;6.880;2024-02-28T14:04:55;28.00;31.50
12060;DHT22;6091;51.432;6.880;2024-02-28T14:07:22;27.90;31.40
12060;DHT22;6091;51.432;6.880;2024-02-28T14:09:50;27.80;31.20
12060;DHT22;6091;51.432;6.880;2024-02-28T14:12:18;27.60;31.20
12060;DHT22;6091;51.432;6.880;2024-02-28T14:14:46;27.50;31.60
12060;DHT22;6091;51.432;6.880;2024-02-28T14:17:14;27.40;31.00
12060;DHT22;6091;51.432;6.880;2024-02-28T14:19:43;27.30;30.90
12060;DHT22;6091;51.432;6.880;2024-02-28T14:22:10;27.00;29.90
12060;DHT22;6091;51.432;6.880;2024-02-28T14:24:38;26.00;30.00
12060;DHT22;6091;51.432;6.880;2024-02-28T14:27:07;26.80;30.50
12060;DHT22;6091;51.432;6.880;2024-02-28T14:29:34;26.60;30.40
12060;DHT22;6091;51.432;6.880;2024-02-28T14:32:02;26.40;29.50
12060;DHT22;6091;51.432;6.880;2024-02-28T14:34:32;26.20;30.00
12060;DHT22;6091;51.432;6.880;2024-02-28T14:37:00;25.90;29.20
12060;DHT22;6091;51.432;6.880;2024-02-28T14:39:27;25.80;29.60
12060;DHT22;6091;51.432;6.880;2024-02-28T14:41:56;25.70;29.80
12060;DHT22;6091;51.432;6.880;2024-02-28T14:44:23;25.60;29.70
12060;DHT22;6091;51.432;6.880;2024-02-28T14:46:51;25.50;29.70
12060;DHT22;6091;51.432;6.880;2024-02-28T14:49:19;25.40;29.70
12060;DHT22;6091;51.432;6.880;2024-02-28T14:51:47;25.30;30.00
12060;DHT22;6091;51.432;6.880;2024-02-28T14:54:16;25.20;30.00
12060;DHT22;6091;51.432;6.880;2024-02-28T14:56:46;25.20;30.00
12060;DHT22;6091;51.432;6.880;2024-02-28T14:59:14;25.10;30.00
12060;DHT22;6091;51.432;6.880;2024-02-28T15:01:42;25.00;30.30
12060;DHT22;6091;51.432;6.880;2024-02-28T15:04:10;25.00;30.40
12060;DHT22;6091;51.432;6.880;2024-02-28T15:06:41;25.00;30.20
12060;DHT22;6091;51.432;6.880;2024-02-28T15:09:09;24.90;30.00
12060;DHT22;6091;51.432;6.880;2024-02-28T15:11:36;24.90;30.20
12060;DHT22;6091;51.432;6.880;2024-02-28T15:14:05;24.90;30.30
12060;DHT22;6091;51.432;6.880;2024-02-28T15:16:33;25.00;30.30
12060;DHT22;6091;51.432;6.880;2024-02-28T15:19:01;25.00;30.30
12060;DHT22;6091;51.432;6.880;2024-02-28T15:21:28;25.00;30.00
12060;DHT22;6091;51.432;6.880;2024-02-28T15:23:56;25.00;30.00
12060;DHT22;6091;51.432;6.880;2024-02-28T15:26:23;25.00;30.00
12060;DHT22;6091;51.432;6.880;2024-02-28T15:29:08;25.00;30.10
12060;DHT22;6091;51.432;6.880;2024-02-28T15:31:56;25.00;30.00
12060;DHT22;6091;51.432;6.880;2024-02-28T15:34:25;25.00;29.90
12060;DHT22;6091;51.432;6.880;2024-02-28T15:36:55;25.00;29.90
12060;DHT22;6091;51.432;6.880;2024-02-28T15:39:23;25.00;29.90
12060;DHT22;6091;51.432;6.880;2024-02-28T15:41:51;24.90;29.90
12060;DHT22;6091;51.432;6.880;2024-02-28T15:44:19;24.80;29.60
12060;DHT22;6091;51.432;6.880;2024-02-28T15:46:47;24.80;29.50
12060;DHT22;6091;51.432;6.880;2024-02-28T15:49:15;24.70;29.50
12060;DHT22;6091;51.432;6.880;2024-02-28T15:51:54;24.60;29.70